Time;durP1;ratioP1;P1;durP2;ratioP2;P2;SDS_P1;SDS_P2;PMS_P1;PMS_P2;Temp;Humidity;BMP_temperature;BMP_pressure;BME280_temperature;BME280_humidity;BME280_pressure;Samples;Min_cycle;Max_cycle;Signal;HPM_P1;HPM_P2
2022/09/25 00:02:01;;;;;;;3.70;0.52;;;;;;;13.46;100.00;100586.56;5047751;28;20132;-67
2022/09/25 00:04:26;;;;;;;2.25;0.90;;;;;;;13.45;100.00;100582.31;5051545;28;20108;-68
2022/09/25 00:06:51;;;;;;;3.60;0.55;;;;;;;13.45;100.00;100579.69;5048881;28;20027;-68
2022/09/25 00:09:19;;;;;;;2.08;0.40;;;;;;;13.41;100.00;100585.41;5048912;28;20499;-68
2022/09/25 00:11:45;;;;;;;6.35;0.50;;;;;;;13.41;100.00;100583.59;5062940;28;20033;-68
2022/09/25 00:14:10;;;;;;;1.65;0.40;;;;;;;13.37;100.00;100582.28;5048694;28;20400;-68
2022/09/25 00:16:36;;;;;;;4.38;0.50;;;;;;;13.35;100.00;100581.63;5048002;28;20055;-67
2022/09/25 00:21:51;;;;;;;1.77;0.40;;;;;;;13.31;100.00;100582.09;5048612;28;20091;-67
2022/09/25 00:24:17;;;;;;;1.83;0.57;;;;;;;13.31;100.00;100582.91;5050410;28;20206;-67
2022/09/25 00:26:43;;;;;;;3.17;0.40;;;;;;;13.36;100.00;100583.25;5048556;28;20111;-69
2022/09/25 00:29:15;;;;;;;1.95;0.50;;;;;;;13.40;100.00;100581.16;5048605;28;20023;-68
2022/09/25 00:31:40;;;;;;;1.25;0.50;;;;;;;13.43;100.00;100576.41;5063468;28;20127;-67
2022/09/25 00:34:06;;;;;;;1.52;0.43;;;;;;;13.45;100.00;100566.59;5049152;28;20447;-68
2022/09/25 00:36:32;;;;;;;1.42;0.63;;;;;;;13.46;100.00;100562.19;5049063;28;20464;-68
2022/09/25 00:38:58;;;;;;;1.15;0.47;;;;;;;13.46;100.00;100560.41;5047284;28;20025;-68
2022/09/25 00:41:26;;;;;;;1.48;0.57;;;;;;;13.40;100.00;100561.03;5051656;28;20098;-66
2022/09/25 00:43:55;;;;;;;1.45;0.40;;;;;;;13.39;100.00;100553.34;5046914;28;20803;-68
2022/09/25 00:46:35;;;;;;;1.92;0.40;;;;;;;13.40;100.00;100555.81;5047980;28;20029;-68
2022/09/25 00:49:11;;;;;;;4.32;0.50;;;;;;;13.35;100.00;100550.22;5046787;28;20037;-68
2022/09/25 00:51:43;;;;;;;2.05;0.50;;;;;;;13.39;100.00;100546.31;5048461;28;20040;-71
2022/09/25 00:54:15;;;;;;;4.22;0.80;;;;;;;13.42;100.00;100532.91;5047905;28;20025;-69
2022/09/25 00:56:44;;;;;;;1.20;0.57;;;;;;;13.31;100.00;100516.69;5047990;28;20021;-68
2022/09/25 00:59:14;;;;;;;3.63;0.70;;;;;;;13.23;100.00;100518.31;5065480;28;20579;-68
2022/09/25 01:01:39;;;;;;;4.07;0.40;;;;;;;13.19;100.00;100511.78;5049624;28;20595;-68
2022/09/25 01:04:06;;;;;;;1.85;0.50;;;;;;;13.22;100.00;100515.88;5047426;28;20058;-68
2022/09/25 01:06:33;;;;;;;2.90;0.50;;;;;;;13.22;100.00;100502.78;5048606;28;20060;-68
2022/09/25 01:08:59;;;;;;;1.45;0.40;;;;;;;13.21;100.00;100498.53;5047594;28;20024;-68
2022/09/25 01:11:24;;;;;;;1.40;0.50;;;;;;;13.18;100.00;100501.47;5050128;28;20033;-68
2022/09/25 01:13:55;;;;;;;2.95;0.52;;;;;;;13.16;100.00;100495.59;5044962;28;20034;-69
2022/09/25 01:16:59;;;;;;;1.67;0.47;;;;;;;13.09;100.00;100484.91;5046983;28;20106;-70
2022/09/25 01:19:49;;;;;;;1.35;0.52;;;;;;;13.08;100.00;100485.06;5046669;28;20041;-68
2022/09/25 01:22:20;;;;;;;1.38;0.40;;;;;;;13.09;100.00;100479.69;5050954;28;20041;-68
2022/09/25 01:25:25;;;;;;;3.15;0.65;;;;;;;13.07;100.00;100465.94;5048518;28;20431;-68
2022/09/25 01:28:46;;;;;;;1.58;0.50;;;;;;;13.06;100.00;100466.09;5038315;28;20064;-67
2022/09/25 01:31:33;;;;;;;3.20;0.47;;;;;;;13.02;100.00;100456.94;4965747;28;20052;-68
2022/09/25 01:34:18;;;;;;;3.67;0.60;;;;;;;13.07;100.00;100459.88;4985631;28;20117;-66
2022/09/25 01:36:56;;;;;;;1.25;0.40;;;;;;;13.09;100.00;100455.31;4967360;28;20066;-67
2022/09/25 01:39:29;;;;;;;2.38;0.47;;;;;;;13.14;100.00;100437.34;4986447;28;20149;-68
2022/09/25 01:42:07;;;;;;;1.48;0.50;;;;;;;13.09;100.00;100444.84;4985366;28;20438;-69
2022/09/25 01:44:42;;;;;;;2.72;0.40;;;;;;;13.11;100.00;100441.09;4985294;28;20162;-67
2022/09/25 01:47:18;;;;;;;1.58;0.40;;;;;;;13.12;100.00;100447.97;4985029;28;20486;-68
2022/09/25 01:49:49;;;;;;;4.15;0.50;;;;;;;13.13;100.00;100436.53;4985229;28;20042;-67
2022/09/25 01:52:21;;;;;;;3.92;0.60;;;;;;;13.21;100.00;100433.13;4985109;28;20106;-67
2022/09/25 01:54:50;;;;;;;8.45;0.60;;;;;;;13.26;100.00;100439.50;4969651;28;20042;-68
2022/09/25 01:58:02;;;;;;;3.30;1.05;;;;;;;13.30;100.00;100429.53;4985020;28;20557;-68
2022/09/25 02:00:28;;;;;;;6.18;0.55;;;;;;;13.32;100.00;100419.72;4926769;29;20035;-68
2022/09/25 02:02:59;;;;;;;10.73;1.08;;;;;;;13.31;100.00;100417.25;4923580;29;20165;-67
2022/09/25 02:05:32;;;;;;;2.72;0.60;;;;;;;13.23;100.00;100412.88;4981784;28;20547;-67
2022/09/25 02:08:03;;;;;;;2.33;0.68;;;;;;;13.19;100.00;100406.31;4988862;28;20042;-67
2022/09/25 02:10:40;;;;;;;2.85;0.50;;;;;;;13.24;100.00;100414.47;5002874;28;20084;-69
2022/09/25 02:13:11;;;;;;;3.83;0.80;;;;;;;13.29;100.00;100405.16;5005357;28;20109;-67
2022/09/25 02:15:42;;;;;;;6.40;1.17;;;;;;;13.35;100.00;100406.31;5001242;28;20137;-68
2022/09/25 02:21:21;;;;;;;4.38;0.63;;;;;;;13.35;100.00;100403.69;5000086;28;20556;-68
2022/09/25 02:24:03;;;;;;;3.88;0.73;;;;;;;13.33;100.00;100403.03;5005460;28;20397;-68
2022/09/25 02:26:31;;;;;;;2.38;0.63;;;;;;;13.36;100.00;100394.03;5000234;28;20065;-68
2022/09/25 02:28:58;;;;;;;2.65;0.50;;;;;;;13.33;100.00;100389.13;5004100;28;20040;-67
2022/09/25 02:31:47;;;;;;;6.88;0.60;;;;;;;13.34;100.00;100388.97;5000416;28;20034;-67
2022/09/25 02:34:12;;;;;;;1.48;0.30;;;;;;;13.28;100.00;100385.19;5014280;28;20129;-67
2022/09/25 02:36:38;;;;;;;1.75;0.60;;;;;;;13.24;100.00;100377.84;5044994;28;20115;-68
2022/09/25 02:39:07;;;;;;;1.50;0.30;;;;;;;13.20;100.00;100382.63;5050523;28;20484;-69
2022/09/25 02:41:53;;;;;;;1.42;0.22;;;;;;;13.16;100.00;100391.75;5050551;28;20033;-67
2022/09/25 02:44:47;;;;;;;0.65;0.22;;;;;;;13.17;100.00;100390.78;5050396;28;20032;-67
2022/09/25 02:47:34;;;;;;;0.77;0.20;;;;;;;13.16;100.00;100391.75;5051140;28;20037;-67
2022/09/25 02:50:24;;;;;;;8.77;0.40;;;;;;;13.18;100.00;100394.22;5050443;28;20060;-68
2022/09/25 02:53:12;;;;;;;0.47;0.22;;;;;;;13.15;100.00;100384.03;5050406;28;20036;-68
2022/09/25 02:55:40;;;;;;;0.85;0.20;;;;;;;13.13;100.00;100376.38;5050366;28;20033;-68
2022/09/25 02:58:23;;;;;;;1.02;0.30;;;;;;;13.16;100.00;100375.25;5050832;28;20028;-69
2022/09/25 03:00:52;;;;;;;2.30;0.40;;;;;;;13.16;100.00;100376.06;5069374;28;20563;-69
2022/09/25 03:03:19;;;;;;;1.58;0.30;;;;;;;13.16;100.00;100372.63;5050967;28;20343;-69
2022/09/25 03:05:48;;;;;;;0.60;0.20;;;;;;;13.17;100.00;100374.28;5049914;28;20029;-67
2022/09/25 03:10:58;;;;;;;0.50;0.20;;;;;;;13.18;100.00;100368.06;5050781;28;20382;-67
2022/09/25 03:13:30;;;;;;;1.90;0.20;;;;;;;13.20;100.00;100364.31;5050778;28;20036;-68
2022/09/25 03:16:17;;;;;;;0.80;0.20;;;;;;;13.18;100.00;100361.03;5048090;28;20090;-69
2022/09/25 03:18:43;;;;;;;1.80;0.20;;;;;;;13.17;100.00;100361.19;5044266;28;20045;-69
2022/09/25 03:21:09;;;;;;;1.90;0.20;;;;;;;13.18;100.00;100354.97;5049522;28;20074;-68
2022/09/25 03:23:34;;;;;;;0.30;0.10;;;;;;;13.17;100.00;100351.53;5051747;28;20051;-68
2022/09/25 03:26:00;;;;;;;3.80;0.20;;;;;;;13.18;100.00;100341.91;5053048;28;20139;-68
2022/09/25 03:28:26;;;;;;;1.35;0.20;;;;;;;13.16;100.00;100333.41;5049316;28;20111;-66
2022/09/25 03:31:01;;;;;;;2.67;0.20;;;;;;;13.15;100.00;100334.34;5049440;28;20035;-67
2022/09/25 03:33:29;;;;;;;2.90;0.28;;;;;;;13.18;100.00;100328.81;5049126;28;20027;-69
2022/09/25 03:36:12;;;;;;;1.35;0.13;;;;;;;13.15;100.00;100316.03;5049341;28;20514;-68
2022/09/25 03:38:40;;;;;;;0.90;0.10;;;;;;;13.17;100.00;100311.50;5049559;28;20051;-68
2022/09/25 03:41:07;;;;;;;0.82;0.15;;;;;;;13.21;100.00;100310.19;5047893;28;20035;-69
2022/09/25 03:43:37;;;;;;;0.47;0.20;;;;;;;13.24;100.00;100315.88;5065223;28;20111;-68
2022/09/25 03:46:08;;;;;;;0.45;0.20;;;;;;;13.27;100.00;100314.72;5049299;28;20086;-69
2022/09/25 03:48:35;;;;;;;0.30;0.20;;;;;;;13.30;100.00;100314.41;5049678;28;20031;-68
2022/09/25 03:51:01;;;;;;;0.30;0.13;;;;;;;13.30;100.00;100314.41;5047510;28;20418;-68
2022/09/25 03:53:31;;;;;;;1.58;0.20;;;;;;;13.31;100.00;100315.22;5049920;28;20033;-68
2022/09/25 03:55:56;;;;;;;1.00;0.15;;;;;;;13.29;100.00;100318.00;5063578;28;20028;-68
2022/09/25 03:58:22;;;;;;;0.68;0.20;;;;;;;13.30;100.00;100311.78;5050228;28;20040;-67
2022/09/25 04:00:47;;;;;;;0.40;0.17;;;;;;;13.31;100.00;100321.25;5051539;28;20476;-69
2022/09/25 04:03:14;;;;;;;0.80;0.20;;;;;;;13.31;100.00;100310.78;5047023;28;20442;-69
2022/09/25 04:05:42;;;;;;;2.35;0.20;;;;;;;13.32;100.00;100307.19;5049219;28;20037;-70
2022/09/25 04:08:08;;;;;;;0.43;0.13;;;;;;;13.32;100.00;100307.19;5049871;28;20036;-71
2022/09/25 04:10:37;;;;;;;0.70;0.30;;;;;;;13.31;100.00;100289.88;5049633;28;20032;-70
2022/09/25 04:13:04;;;;;;;1.85;0.30;;;;;;;13.33;100.00;100287.09;5048807;28;20048;-70
2022/09/25 04:15:30;;;;;;;0.63;0.20;;;;;;;13.33;100.00;100281.84;5048571;28;20078;-70
2022/09/25 04:17:57;;;;;;;2.58;0.50;;;;;;;13.34;100.00;100273.84;5061869;28;20021;-70
2022/09/25 04:20:22;;;;;;;2.15;0.50;;;;;;;13.35;100.00;100277.28;5050867;28;20465;-72
2022/09/25 04:22:48;;;;;;;1.35;0.20;;;;;;;13.34;100.00;100279.06;5050577;28;20196;-69
2022/09/25 04:25:14;;;;;;;1.30;0.20;;;;;;;13.34;100.00;100273.84;5049300;28;20180;-70
2022/09/25 04:27:39;;;;;;;2.78;0.30;;;;;;;13.35;100.00;100270.22;5049268;28;20025;-70
2022/09/25 04:30:06;;;;;;;1.85;0.20;;;;;;;13.36;100.00;100256.16;5050892;28;20094;-69
2022/09/25 04:35:16;;;;;;;0.70;0.30;;;;;;;13.37;100.00;100260.41;5049623;28;20047;-70
2022/09/25 04:37:42;;;;;;;1.45;0.22;;;;;;;13.37;100.00;100263.03;5048876;28;20029;-70
2022/09/25 04:40:08;;;;;;;0.88;0.32;;;;;;;13.37;100.00;100252.56;5049244;28;20151;-69
2022/09/25 04:42:33;;;;;;;0.40;0.20;;;;;;;13.37;100.00;100236.88;5048725;28;20153;-68
2022/09/25 04:44:59;;;;;;;0.40;0.20;;;;;;;13.38;100.00;100248.97;5048570;28;20269;-69
2022/09/25 04:47:27;;;;;;;0.73;0.10;;;;;;;13.40;100.00;100246.19;5048488;28;20239;-69
2022/09/25 04:49:53;;;;;;;0.50;0.20;;;;;;;13.43;100.00;100248.47;5049427;28;20033;-70
2022/09/25 04:52:19;;;;;;;2.28;0.20;;;;;;;13.44;100.00;100235.22;5047740;28;20025;-68
2022/09/25 04:54:45;;;;;;;0.88;0.20;;;;;;;13.44;100.00;100232.59;5063058;28;20128;-67
2022/09/25 04:57:18;;;;;;;1.05;0.20;;;;;;;13.44;100.00;100223.94;5048619;28;20519;-69
2022/09/25 04:59:44;;;;;;;1.65;0.20;;;;;;;13.47;100.00;100220.97;5046150;28;20037;-69
2022/09/25 05:02:11;;;;;;;1.35;0.40;;;;;;;13.50;100.00;100231.94;5046266;28;20548;-67
2022/09/25 05:04:37;;;;;;;4.10;0.32;;;;;;;13.55;100.00;100223.56;5049011;28;20021;-69
2022/09/25 05:07:03;;;;;;;0.45;0.20;;;;;;;13.56;100.00;100220.78;5051219;28;20107;-69
2022/09/25 05:09:29;;;;;;;0.43;0.20;;;;;;;13.55;100.00;100208.69;5049071;28;20121;-70
2022/09/25 05:11:55;;;;;;;0.95;0.20;;;;;;;13.57;100.00;100211.13;5046719;28;20036;-68
2022/09/25 05:14:21;;;;;;;1.45;0.20;;;;;;;13.58;100.00;100215.38;5047976;28;20033;-69
2022/09/25 05:16:47;;;;;;;0.93;0.22;;;;;;;13.60;100.00;100213.41;5051253;28;20086;-68
2022/09/25 05:19:13;;;;;;;1.17;0.50;;;;;;;13.61;100.00;100212.44;5051078;28;20040;-68
2022/09/25 05:21:39;;;;;;;1.58;0.20;;;;;;;13.64;100.00;100198.19;5043143;28;20135;-72
2022/09/25 05:24:07;;;;;;;1.02;0.28;;;;;;;13.66;100.00;100209.31;5048602;28;20445;-71
2022/09/25 05:26:33;;;;;;;0.40;0.13;;;;;;;13.65;100.00;100200.63;5046993;28;20526;-70
2022/09/25 05:28:59;;;;;;;1.08;0.10;;;;;;;13.66;100.00;100197.03;5045049;28;20476;-68
2022/09/25 05:31:25;;;;;;;1.60;0.28;;;;;;;13.67;100.00;100205.69;5048021;28;20116;-68
2022/09/25 05:33:51;;;;;;;0.70;0.17;;;;;;;13.68;100.00;100199.47;5046005;28;20037;-70
2022/09/25 05:36:17;;;;;;;0.57;0.20;;;;;;;13.67;100.00;100187.38;5046480;28;20074;-68
2022/09/25 05:38:43;;;;;;;0.50;0.13;;;;;;;13.70;100.00;100184.41;5048843;28;20477;-69
2022/09/25 05:41:09;;;;;;;1.45;0.10;;;;;;;13.71;100.00;100186.81;5046615;28;20108;-72
2022/09/25 05:43:46;;;;;;;1.65;0.38;;;;;;;13.72;100.00;100187.66;5047969;28;20049;-69
2022/09/25 05:46:12;;;;;;;0.43;0.10;;;;;;;13.74;100.00;100180.44;5044035;28;20064;-73
2022/09/25 05:48:38;;;;;;;1.02;0.20;;;;;;;13.76;100.00;100158.34;5047302;28;20033;-69
2022/09/25 05:51:03;;;;;;;1.48;0.20;;;;;;;13.79;100.00;100167.66;5051168;28;20098;-71
2022/09/25 05:53:29;;;;;;;0.77;0.10;;;;;;;13.79;100.00;100172.88;5045950;28;20025;-73
2022/09/25 05:55:57;;;;;;;1.50;0.13;;;;;;;13.79;100.00;100163.22;5046836;28;20052;-69
2022/09/25 05:58:24;;;;;;;1.45;0.30;;;;;;;13.81;100.00;100181.38;5047850;28;20037;-71
2022/09/25 06:00:50;;;;;;;0.80;0.20;;;;;;;13.82;100.00;100175.16;5046754;28;20055;-71
2022/09/25 06:03:16;;;;;;;2.90;0.40;;;;;;;13.84;100.00;100194.13;5049829;28;20314;-73
2022/09/25 06:05:45;;;;;;;1.23;0.30;;;;;;;13.86;100.00;100200.00;5048614;28;20056;-70
2022/09/25 06:08:11;;;;;;;0.85;0.20;;;;;;;13.89;100.00;100204.91;5044961;28;20087;-70
2022/09/25 06:10:37;;;;;;;1.15;0.20;;;;;;;13.91;100.00;100205.56;5045254;28;20392;-71
2022/09/25 06:13:05;;;;;;;0.40;0.20;;;;;;;13.90;100.00;100206.53;5048721;28;20087;-68
2022/09/25 06:15:36;;;;;;;1.35;0.20;;;;;;;13.89;100.00;100210.16;5050625;28;20025;-69
2022/09/25 06:18:07;;;;;;;0.80;0.25;;;;;;;13.88;100.00;100208.53;5050778;28;20500;-73
2022/09/25 06:20:34;;;;;;;0.43;0.20;;;;;;;13.84;100.00;100207.22;5050877;28;20380;-70
2022/09/25 06:23:00;;;;;;;1.80;0.10;;;;;;;13.86;100.00;100200.00;5053831;28;20455;-72
2022/09/25 06:25:28;;;;;;;1.00;0.15;;;;;;;13.85;100.00;100219.34;5051380;28;20096;-71
2022/09/25 06:28:01;;;;;;;2.88;0.38;;;;;;;13.84;100.00;100218.50;5051896;28;20039;-72
2022/09/25 06:30:35;;;;;;;1.77;0.20;;;;;;;13.85;100.00;100214.91;5050780;28;20078;-71
2022/09/25 06:33:08;;;;;;;2.55;0.20;;;;;;;13.88;100.00;100205.91;5050162;28;20072;-70
2022/09/25 06:35:34;;;;;;;3.95;0.30;;;;;;;13.86;100.00;100200.00;5064777;28;20032;-68
2022/09/25 06:38:01;;;;;;;1.10;0.20;;;;;;;13.83;100.00;100200.34;5051574;28;20032;-70
2022/09/25 06:40:28;;;;;;;0.90;0.20;;;;;;;13.83;100.00;100201.19;5050015;28;20032;-73
2022/09/25 06:42:58;;;;;;;1.15;0.20;;;;;;;13.87;100.00;100207.69;5051067;28;20410;-69
2022/09/25 06:45:25;;;;;;;1.80;0.30;;;;;;;13.91;100.00;100208.19;5048388;28;20071;-69
2022/09/25 06:47:56;;;;;;;2.45;0.20;;;;;;;13.91;100.00;100208.19;5030861;28;20089;-69
2022/09/25 06:50:24;;;;;;;3.33;0.95;;;;;;;13.93;100.00;100214.88;5048513;28;20040;-73
2022/09/25 06:52:50;;;;;;;0.85;0.30;;;;;;;13.94;100.00;100202.59;5065082;28;20124;-68
2022/09/25 06:55:15;;;;;;;0.82;0.20;;;;;;;13.96;100.00;100208.47;5052417;28;20124;-69
2022/09/25 06:57:41;;;;;;;3.65;0.30;;;;;;;13.93;100.00;100193.91;5048930;28;20025;-67
2022/09/25 07:00:07;;;;;;;0.93;0.30;;;;;;;13.97;100.00;100207.50;5053658;28;20031;-69
2022/09/25 07:05:20;;;;;;;3.72;0.50;;;;;;;14.01;100.00;100193.06;5050209;28;20451;-72
2022/09/25 07:07:46;;;;;;;5.72;0.45;;;;;;;14.06;100.00;100200.41;5050499;28;20040;-71
2022/09/25 07:10:11;;;;;;;2.55;0.55;;;;;;;14.07;100.00;100195.00;5051659;28;20496;-72
2022/09/25 07:12:38;;;;;;;1.90;0.50;;;;;;;14.11;100.00;100192.84;5050549;28;20025;-72
2022/09/25 07:15:04;;;;;;;4.55;0.60;;;;;;;14.13;100.00;100193.47;5032217;28;20017;-73
2022/09/25 07:17:29;;;;;;;4.40;0.98;;;;;;;14.14;100.00;100188.06;5049858;28;20033;-71
2022/09/25 07:19:55;;;;;;;5.07;1.33;;;;;;;14.17;100.00;100190.34;5050657;28;20025;-70
2022/09/25 07:22:20;;;;;;;2.63;0.75;;;;;;;14.19;100.00;100190.13;5049538;28;20049;-68
2022/09/25 07:24:46;;;;;;;1.20;0.57;;;;;;;14.20;100.00;100189.16;5049375;28;20025;-66
2022/09/25 07:27:11;;;;;;;2.45;0.85;;;;;;;14.23;100.00;100191.44;5048763;28;20068;-64
2022/09/25 07:29:37;;;;;;;1.50;0.60;;;;;;;14.23;100.00;100202.72;5050306;28;20021;-62
2022/09/25 07:32:03;;;;;;;3.38;1.15;;;;;;;14.26;100.00;100204.19;5050401;28;20539;-65
2022/09/25 07:34:29;;;;;;;5.95;1.20;;;;;;;14.29;100.00;100215.13;5049983;28;20075;-66
2022/09/25 07:36:55;;;;;;;10.88;1.08;;;;;;;14.32;100.00;100226.25;5050318;28;20392;-63
2022/09/25 07:39:20;;;;;;;2.45;0.80;;;;;;;14.29;100.00;100227.41;5049513;28;20029;-63
2022/09/25 07:41:46;;;;;;;2.80;0.80;;;;;;;14.23;100.00;100218.44;5049845;28;20040;-64
2022/09/25 07:44:11;;;;;;;4.10;0.82;;;;;;;14.23;100.00;100221.06;5063770;28;20029;-64
2022/09/25 07:46:41;;;;;;;2.95;0.68;;;;;;;14.24;100.00;100225.31;5048576;28;20040;-66
2022/09/25 07:49:07;;;;;;;1.92;0.40;;;;;;;14.27;100.00;100229.41;5080790;28;20029;-64
2022/09/25 07:51:33;;;;;;;1.45;0.47;;;;;;;14.29;100.00;100238.72;5048371;28;20032;-64
2022/09/25 07:53:59;;;;;;;0.90;0.50;;;;;;;14.30;100.00;100242.16;5047781;28;20021;-63
2022/09/25 07:56:26;;;;;;;5.25;0.45;;;;;;;14.32;100.00;100240.19;5061875;28;20033;-64
2022/09/25 07:58:52;;;;;;;4.15;0.60;;;;;;;14.34;100.00;100245.25;5061235;28;20087;-63
2022/09/25 08:01:18;;;;;;;2.63;0.57;;;;;;;14.38;100.00;100239.47;5044379;28;20033;-63
2022/09/25 08:03:44;;;;;;;2.03;0.50;;;;;;;14.41;100.00;100230.44;5046953;28;20526;-62
2022/09/25 08:06:12;;;;;;;5.13;0.60;;;;;;;14.44;100.00;100236.19;5049786;28;20533;-64
2022/09/25 08:08:39;;;;;;;2.92;0.50;;;;;;;14.46;100.00;100243.88;5063818;28;20029;-65
2022/09/25 08:11:08;;;;;;;2.33;0.68;;;;;;;14.48;100.00;100244.53;5046790;28;20031;-64
2022/09/25 08:13:36;;;;;;;2.13;0.75;;;;;;;14.51;100.00;100250.25;5029165;28;20033;-65
2022/09/25 08:16:03;;;;;;;3.72;0.93;;;;;;;14.51;100.00;100247.63;5047431;28;20214;-64
2022/09/25 08:18:29;;;;;;;6.68;2.05;;;;;;;14.54;100.00;100252.50;5048396;28;20032;-64
2022/09/25 08:21:00;;;;;;;4.80;1.10;;;;;;;14.53;100.00;100253.50;5049226;28;20021;-63
2022/09/25 08:23:26;;;;;;;5.13;0.93;;;;;;;14.52;100.00;100243.19;5048858;28;20054;-62
2022/09/25 08:25:52;;;;;;;5.65;0.90;;;;;;;14.55;100.00;100255.94;5048142;28;20041;-64
2022/09/25 08:28:17;;;;;;;2.78;0.98;;;;;;;14.58;100.00;100260.84;5047320;28;20380;-64
2022/09/25 08:30:43;;;;;;;5.90;0.80;;;;;;;14.57;100.00;100254.78;5047273;28;20029;-71
2022/09/25 08:33:12;;;;;;;2.03;0.70;;;;;;;14.54;100.00;100259.56;5048340;28;20061;-71
2022/09/25 08:35:41;;;;;;;3.20;0.70;;;;;;;14.44;100.00;100265.03;5047714;28;20029;-71
2022/09/25 08:38:08;;;;;;;0.63;0.32;;;;;;;14.31;100.00;100272.59;5048053;28;20036;-71
2022/09/25 08:40:49;;;;;;;1.70;0.50;;;;;;;14.23;100.00;100280.50;5049158;28;20068;-71
2022/09/25 08:43:20;;;;;;;0.93;0.30;;;;;;;14.13;100.00;100270.28;5048333;28;20029;-68
2022/09/25 08:49:01;;;;;;;0.73;0.20;;;;;;;13.95;100.00;100269.72;5036428;28;20051;-72
2022/09/25 08:51:31;;;;;;;;;;;;;;;13.91;100.00;100273.66;5039513;28;20439;-69
2022/09/25 08:53:58;;;;;;;2.40;0.30;;;;;;;13.93;100.00;100277.72;5036749;28;20317;-71
2022/09/25 08:56:26;;;;;;;0.90;0.30;;;;;;;13.88;100.00;100276.59;5048849;28;20082;-66
2022/09/25 08:58:54;;;;;;;0.50;0.20;;;;;;;13.84;100.00;100270.88;5042881;28;20036;-70
2022/09/25 09:01:41;;;;;;;1.10;0.40;;;;;;;13.84;100.00;100259.59;5045460;28;20113;-71
2022/09/25 09:04:13;;;;;;;0.95;0.20;;;;;;;13.91;100.00;100271.03;5062871;28;20051;-69
2022/09/25 09:06:41;;;;;;;1.58;0.22;;;;;;;13.92;100.00;100272.66;5048726;28;20036;-68
2022/09/25 09:09:19;;;;;;;1.50;0.15;;;;;;;13.92;100.00;100272.66;5061200;28;20562;-69
2022/09/25 09:11:56;;;;;;;0.20;0.10;;;;;;;13.86;100.00;100268.09;5048222;28;20097;-73
2022/09/25 09:14:28;;;;;;;0.95;0.15;;;;;;;13.84;100.00;100267.47;5045036;28;20034;-72
2022/09/25 09:17:06;;;;;;;3.97;0.10;;;;;;;13.74;100.00;100269.47;5044167;28;20129;-73
2022/09/25 09:19:32;;;;;;;0.60;0.10;;;;;;;13.73;100.00;100267.81;5047128;28;20123;-68
2022/09/25 09:22:12;;;;;;;0.65;0.10;;;;;;;13.78;100.00;100260.28;5048022;28;20125;-68
2022/09/25 09:24:52;;;;;;;2.85;0.10;;;;;;;13.80;100.00;100264.34;5048359;28;20036;-68
2022/09/25 09:27:45;;;;;;;0.20;0.00;;;;;;;13.69;100.00;100266.56;5047172;28;20138;-69
2022/09/25 09:30:36;;;;;;;0.45;0.00;;;;;;;13.58;100.00;100260.69;5043993;28;20481;-69
2022/09/25 09:33:49;;;;;;;0.93;0.10;;;;;;;13.61;100.00;100255.13;5048458;28;20492;-70
2022/09/25 09:36:39;;;;;;;0.15;0.00;;;;;;;13.56;100.00;100254.81;4981612;28;20070;-69
2022/09/25 09:39:22;;;;;;;0.55;0.10;;;;;;;13.62;100.00;100258.56;4991350;28;20042;-69
2022/09/25 09:42:09;;;;;;;1.52;0.13;;;;;;;13.56;100.00;100252.19;4985382;28;20069;-69
2022/09/25 09:44:40;;;;;;;1.58;0.05;;;;;;;13.58;100.00;100254.66;4984674;28;20412;-68
2022/09/25 09:47:38;;;;;;;1.25;0.08;;;;;;;13.54;100.00;100258.59;4984308;28;20038;-67
2022/09/25 09:50:27;;;;;;;0.65;0.00;;;;;;;13.57;100.00;100264.31;4985107;28;20364;-66
2022/09/25 09:53:01;;;;;;;0.30;0.00;;;;;;;13.63;100.00;100260.19;4986073;28;20046;-68
2022/09/25 09:55:50;;;;;;;0.17;0.00;;;;;;;13.56;100.00;100260.03;4994259;28;20556;-68
2022/09/25 09:58:55;;;;;;;0.20;0.00;;;;;;;13.52;100.00;100269.22;4983551;28;20050;-67
2022/09/25 10:01:23;;;;;;;2.50;0.00;;;;;;;13.53;100.00;100265.63;4923120;29;20039;-68
2022/09/25 10:04:22;;;;;;;0.30;0.10;;;;;;;13.51;100.00;100264.97;4926072;29;20050;-68
2022/09/25 10:07:12;;;;;;;0.17;0.00;;;;;;;13.58;100.00;100271.16;4913821;29;20081;-67
2022/09/25 10:09:38;;;;;;;0.20;0.08;;;;;;;13.71;100.00;100272.41;4951166;28;20049;-66
2022/09/25 10:12:13;;;;;;;0.68;0.10;;;;;;;13.79;100.00;100270.59;5005001;28;20493;-67
2022/09/25 10:14:43;;;;;;;0.30;0.00;;;;;;;13.68;100.00;100276.22;5003208;28;20038;-66
2022/09/25 10:17:10;;;;;;;0.60;0.00;;;;;;;13.64;100.00;100279.34;5002576;28;20232;-68
2022/09/25 10:19:58;;;;;;;0.20;0.00;;;;;;;13.64;100.00;100274.09;5002500;28;20120;-69
2022/09/25 10:22:32;;;;;;;0.40;0.10;;;;;;;13.59;100.00;100274.59;4986339;28;20046;-69
2022/09/25 10:25:04;;;;;;;0.28;0.00;;;;;;;13.60;100.00;100279.66;4994504;28;20046;-72
2022/09/25 10:27:35;;;;;;;0.50;0.08;;;;;;;13.61;100.00;100275.25;4987645;28;20647;-71
2022/09/25 10:30:12;;;;;;;0.65;0.00;;;;;;;13.63;100.00;100267.22;5002976;28;20041;-67
2022/09/25 10:33:00;;;;;;;0.15;0.00;;;;;;;13.71;100.00;100275.84;5033196;28;20115;-66
2022/09/25 10:35:37;;;;;;;1.15;0.05;;;;;;;13.86;100.00;100262.88;5051162;28;20357;-67
2022/09/25 10:38:06;;;;;;;0.40;0.10;;;;;;;14.04;100.00;100266.06;5047321;28;20071;-67
2022/09/25 10:40:35;;;;;;;0.75;0.10;;;;;;;14.22;100.00;100263.16;5045441;28;20554;-66
2022/09/25 10:43:15;;;;;;;1.45;0.10;;;;;;;14.30;100.00;100257.88;5046545;28;20035;-66
2022/09/25 10:45:41;;;;;;;0.47;0.10;;;;;;;14.36;100.00;100259.00;5046673;28;20424;-64
2022/09/25 10:51:19;;;;;;;0.15;0.00;;;;;;;14.51;100.00;100250.25;5025225;28;20069;-66
2022/09/25 10:54:09;;;;;;;0.52;0.10;;;;;;;14.60;100.00;100245.75;5040299;28;20037;-64
2022/09/25 10:56:37;;;;;;;0.10;0.00;;;;;;;14.63;100.00;100242.78;5027727;28;20532;-63
2022/09/25 10:59:13;;;;;;;0.50;0.00;;;;;;;14.67;100.00;100246.66;5029898;28;20113;-63
2022/09/25 11:01:42;;;;;;;0.52;0.10;;;;;;;14.75;100.00;100254.47;5046036;28;20127;-63
2022/09/25 11:04:26;;;;;;;0.32;0.00;;;;;;;14.77;100.00;100257.72;5048444;28;20183;-64
2022/09/25 11:06:57;;;;;;;0.13;0.00;;;;;;;14.89;100.00;100239.75;5049927;28;20094;-64
2022/09/25 11:09:25;;;;;;;0.20;0.10;;;;;;;15.03;100.00;100246.03;5049636;28;20083;-63
2022/09/25 11:12:03;;;;;;;0.20;0.00;;;;;;;15.17;100.00;100248.66;5048698;28;20086;-61
2022/09/25 11:14:34;;;;;;;0.82;0.10;;;;;;;15.38;100.00;100242.72;5046952;28;20029;-62
2022/09/25 11:17:03;;;;;;;0.68;0.10;;;;;;;15.49;100.00;100238.81;5049969;28;20037;-62
2022/09/25 11:19:35;;;;;;;0.28;0.10;;;;;;;15.48;100.00;100243.25;5062250;28;20048;-63
2022/09/25 11:22:18;;;;;;;0.55;0.00;;;;;;;15.57;100.00;100247.47;5049422;28;20048;-63
2022/09/25 11:24:58;;;;;;;0.63;0.10;;;;;;;15.67;100.00;100252.41;5049451;28;20040;-61
2022/09/25 11:27:56;;;;;;;0.52;0.10;;;;;;;15.60;100.00;100254.13;5049245;28;20037;-63
2022/09/25 11:30:22;;;;;;;1.02;0.10;;;;;;;15.46;100.00;100247.88;5048520;28;20049;-62
2022/09/25 11:33:32;;;;;;;0.20;0.10;;;;;;;15.28;100.00;100242.97;5064220;28;20051;-61
2022/09/25 11:36:24;;;;;;;1.10;0.10;;;;;;;15.25;100.00;100250.38;5036830;28;20048;-61
2022/09/25 11:41:42;;;;;;;0.30;0.10;;;;;;;15.16;100.00;100241.78;5049756;28;20447;-61
2022/09/25 11:44:23;;;;;;;0.20;0.20;;;;;;;15.14;100.00;100245.56;5047762;28;20537;-61
2022/09/25 11:47:19;;;;;;;0.30;0.03;;;;;;;15.20;100.00;100258.78;5048670;28;20037;-61
2022/09/25 11:49:53;;;;;;;3.30;0.20;;;;;;;15.37;100.00;100263.88;5041332;28;20553;-60
2022/09/25 11:52:19;;;;;;;0.25;0.10;;;;;;;15.41;100.00;100263.34;5065276;28;20025;-62
2022/09/25 11:54:51;;;;;;;0.25;0.10;;;;;;;15.33;100.00;100260.00;5049150;28;20029;-61
2022/09/25 11:57:40;;;;;;;2.13;0.10;;;;;;;15.35;100.00;100263.25;5047535;28;20404;-61
2022/09/25 12:00:27;;;;;;;0.75;0.20;;;;;;;15.50;100.00;100251.78;5050522;28;20132;-62
2022/09/25 12:03:12;;;;;;;0.75;0.25;;;;;;;15.59;100.00;100250.72;5045464;28;20025;-61